Time;durP1;ratioP1;P1;durP2;ratioP2;P2;SDS_P1;SDS_P2;PMS_P1;PMS_P2;Temp;Humidity;BMP_temperature;BMP_pressure;BME280_temperature;BME280_humidity;BME280_pressure;Samples;Min_cycle;Max_cycle;Signal;HPM_P1;HPM_P2
2021/12/14 05:11:12;;;;;;;2.25;2.15;;;0.40;99.90;;;;;;5272785;23;20219;-74
2021/12/14 05:13:42;;;;;;;2.13;2.05;;;0.20;99.90;;;;;;5013650;28;20205;-74
2021/12/14 05:16:16;;;;;;;2.65;2.55;;;0.20;99.90;;;;;;5017586;28;20206;-74
2021/12/14 05:18:47;;;;;;;3.35;3.10;;;0.20;99.90;;;;;;5017573;28;20273;-74
2021/12/14 05:21:21;;;;;;;3.22;2.92;;;0.20;99.90;;;;;;5017493;28;20225;-73
2021/12/14 05:23:48;;;;;;;3.17;2.90;;;0.20;99.90;;;;;;5043185;23;20312;-69
2021/12/14 05:26:18;;;;;;;2.90;2.75;;;0.20;99.90;;;;;;5019950;28;20241;-69
2021/12/14 05:28:45;;;;;;;3.08;2.90;;;0.20;99.90;;;;;;5018400;28;20218;-71
2021/12/14 05:31:12;;;;;;;2.28;2.17;;;0.20;99.90;;;;;;5017635;28;20226;-71
2021/12/14 05:33:40;;;;;;;2.28;2.17;;;0.20;99.90;;;;;;5017296;28;20313;-71
2021/12/14 05:36:09;;;;;;;2.42;2.33;;;0.20;99.90;;;;;;5017414;28;20637;-71
2021/12/14 05:38:46;;;;;;;2.50;2.30;;;0.20;99.90;;;;;;5017380;28;20210;-71
2021/12/14 05:43:06;;;;;;;2.20;2.10;;;0.20;99.90;;;;;;5017405;28;20537;-70
2021/12/14 05:44:09;;;;;;;2.55;2.45;;;0.30;99.90;;;;;;5016905;28;20704;-67
2021/12/14 05:46:36;;;;;;;2.00;1.90;;;0.30;99.90;;;;;;5017098;28;20198;-66
2021/12/14 05:49:08;;;;;;;1.77;1.67;;;0.30;99.90;;;;;;5016942;28;20221;-65
2021/12/14 05:51:35;;;;;;;1.67;1.67;;;0.40;99.90;;;;;;5016638;28;20547;-66
2021/12/14 05:54:02;;;;;;;2.00;1.90;;;0.40;99.90;;;;;;5016824;28;20308;-65
2021/12/14 05:56:31;;;;;;;2.15;2.00;;;0.50;99.90;;;;;;5016471;28;20641;-69
2021/12/14 05:58:59;;;;;;;2.80;2.60;;;0.40;99.90;;;;;;5016522;28;20665;-66
2021/12/14 06:01:31;;;;;;;1.88;1.83;;;0.40;99.90;;;;;;5016496;28;20229;-66
2021/12/14 06:04:01;;;;;;;2.25;2.15;;;0.40;99.90;;;;;;5016660;28;20308;-66
2021/12/14 06:06:32;;;;;;;2.35;2.25;;;0.50;99.90;;;;;;5016676;28;20293;-67
2021/12/14 06:09:06;;;;;;;2.17;2.08;;;0.50;99.90;;;;;;5016362;28;20238;-66
2021/12/14 06:11:34;;;;;;;2.20;2.10;;;0.60;99.90;;;;;;5016607;28;20281;-67
2021/12/14 06:14:01;;;;;;;2.10;2.00;;;0.60;99.90;;;;;;5016539;28;20221;-67
2021/12/14 06:16:33;;;;;;;1.98;1.88;;;0.60;99.90;;;;;;5016376;28;20230;-67
2021/12/14 06:19:17;;;;;;;1.92;1.85;;;0.60;99.90;;;;;;5016153;28;20626;-67
2021/12/14 06:21:49;;;;;;;2.97;2.78;;;0.60;99.90;;;;;;5016397;28;20609;-67
2021/12/14 06:24:16;;;;;;;2.40;2.30;;;0.50;99.90;;;;;;5015942;28;20229;-67
2021/12/14 06:26:46;;;;;;;2.80;2.60;;;0.50;99.90;;;;;;5015432;28;20301;-66
2021/12/14 06:29:18;;;;;;;2.78;2.63;;;0.50;99.90;;;;;;5016834;28;20313;-66
2021/12/14 06:31:47;;;;;;;4.03;2.30;;;0.50;99.90;;;;;;5016248;28;20186;-66
2021/12/14 06:34:20;;;;;;;2.78;2.67;;;0.40;99.90;;;;;;5016038;28;20218;-67
2021/12/14 06:37:53;;;;;;;2.80;2.63;;;0.50;99.90;;;;;;5015847;28;20186;-67
2021/12/14 06:40:22;;;;;;;2.58;2.47;;;0.50;99.90;;;;;;5015599;28;20208;-67
2021/12/14 06:42:52;;;;;;;3.17;2.97;;;0.50;99.90;;;;;;5015673;28;20598;-67
2021/12/14 06:45:26;;;;;;;3.28;2.97;;;0.50;99.90;;;;;;5015998;28;20198;-67
2021/12/14 06:48:00;;;;;;;3.55;3.33;;;0.40;99.90;;;;;;5015609;28;20728;-67
2021/12/14 06:50:34;;;;;;;3.08;2.88;;;0.40;99.90;;;;;;5015826;28;20186;-67
2021/12/14 06:53:04;;;;;;;4.63;4.22;;;0.40;99.90;;;;;;5015049;28;20317;-67
2021/12/14 06:55:33;;;;;;;4.13;3.72;;;0.30;99.90;;;;;;5015442;28;20272;-67
2021/12/14 06:58:10;;;;;;;5.00;4.07;;;0.30;99.90;;;;;;5015334;28;20209;-67
2021/12/14 07:00:41;;;;;;;4.93;4.32;;;0.30;99.90;;;;;;5015299;28;20273;-67
2021/12/14 07:03:09;;;;;;;4.10;3.70;;;0.40;99.90;;;;;;5015596;28;20226;-67
2021/12/14 07:05:36;;;;;;;4.50;4.10;;;0.40;99.90;;;;;;5015281;28;20293;-68
2021/12/14 07:08:12;;;;;;;4.25;3.85;;;0.40;99.90;;;;;;5015571;28;20198;-68
2021/12/14 07:10:42;;;;;;;5.00;4.18;;;0.40;99.90;;;;;;5015253;28;20660;-68
2021/12/14 07:13:18;;;;;;;4.40;4.00;;;0.40;99.90;;;;;;5015485;28;20646;-68
2021/12/14 07:15:46;;;;;;;4.05;3.65;;;0.40;99.90;;;;;;5015387;28;20292;-68
2021/12/14 07:18:15;;;;;;;3.40;3.10;;;0.40;99.90;;;;;;5015425;28;20297;-68
2021/12/14 07:20:49;;;;;;;4.75;4.35;;;0.40;99.90;;;;;;5015331;28;20240;-68
2021/12/14 07:23:22;;;;;;;4.53;4.00;;;0.40;99.90;;;;;;5014990;28;20272;-68
2021/12/14 07:25:54;;;;;;;5.28;4.18;;;0.40;99.90;;;;;;5015162;28;20202;-68
2021/12/14 07:28:21;;;;;;;7.30;5.18;;;0.40;99.90;;;;;;5014799;28;20273;-68
2021/12/14 07:30:50;;;;;;;5.35;4.60;;;0.40;99.90;;;;;;5015043;28;20292;-67
2021/12/14 07:33:20;;;;;;;4.93;4.22;;;0.40;99.90;;;;;;5015606;28;20218;-67
2021/12/14 07:35:51;;;;;;;4.72;4.32;;;0.50;99.90;;;;;;5015749;28;20202;-67
2021/12/14 07:38:23;;;;;;;4.72;4.22;;;0.50;99.90;;;;;;5015939;28;20253;-67
2021/12/14 07:40:53;;;;;;;4.72;4.15;;;0.50;99.90;;;;;;5015434;28;20705;-67
2021/12/14 07:43:25;;;;;;;5.18;4.68;;;0.60;99.90;;;;;;5014623;28;20308;-67
2021/12/14 07:45:54;;;;;;;6.95;5.47;;;0.50;99.90;;;;;;5014975;28;20531;-67
2021/12/14 07:48:38;;;;;;;8.48;5.20;;;0.60;99.90;;;;;;5014789;28;20205;-67
2021/12/14 07:51:05;;;;;;;7.68;5.43;;;0.50;99.90;;;;;;5014909;28;20280;-67
2021/12/14 07:53:37;;;;;;;6.70;5.45;;;0.50;99.90;;;;;;5014688;28;20312;-68
2021/12/14 07:56:05;;;;;;;6.93;5.10;;;0.50;99.90;;;;;;5014439;28;20626;-67
2021/12/14 07:58:35;;;;;;;6.50;5.13;;;0.60;99.90;;;;;;5014678;28;20627;-66
2021/12/14 08:01:03;;;;;;;7.72;5.65;;;0.60;99.90;;;;;;5014691;28;20276;-67
2021/12/14 08:03:33;;;;;;;5.53;4.57;;;0.60;99.90;;;;;;5013681;28;20744;-67
2021/12/14 08:06:04;;;;;;;8.00;5.93;;;0.70;99.90;;;;;;5014442;28;20224;-67
2021/12/14 08:08:41;;;;;;;7.70;5.00;;;0.70;99.90;;;;;;5014353;28;20285;-67
2021/12/14 08:11:29;;;;;;;6.80;4.82;;;0.70;99.90;;;;;;5014386;28;20205;-67
2021/12/14 08:13:58;;;;;;;6.05;4.88;;;0.70;99.90;;;;;;5014404;28;20226;-67
2021/12/14 08:16:25;;;;;;;5.30;4.20;;;0.80;99.90;;;;;;5014347;28;20292;-67
2021/12/14 08:18:54;;;;;;;5.70;4.70;;;0.90;99.90;;;;;;5014089;28;20658;-67
2021/12/14 08:21:25;;;;;;;4.78;4.32;;;1.00;99.90;;;;;;5014657;28;20292;-67
2021/12/14 08:23:55;;;;;;;4.57;4.13;;;1.00;99.90;;;;;;5014114;28;20316;-67
2021/12/14 08:26:26;;;;;;;4.72;4.32;;;1.10;99.90;;;;;;5014024;28;20645;-67
2021/12/14 08:28:55;;;;;;;5.25;4.05;;;1.10;99.90;;;;;;5014649;28;20210;-67
2021/12/14 08:31:24;;;;;;;4.43;3.95;;;1.20;99.90;;;;;;5014122;28;20296;-67
2021/12/14 08:33:55;;;;;;;4.05;3.65;;;1.30;99.90;;;;;;5013997;28;20318;-68
2021/12/14 08:36:22;;;;;;;4.18;3.72;;;1.40;99.90;;;;;;5013599;28;20195;-67
2021/12/14 08:39:02;;;;;;;4.00;3.70;;;1.40;99.90;;;;;;5013624;28;20202;-66
2021/12/14 08:41:30;;;;;;;4.60;4.15;;;1.50;99.90;;;;;;5013955;28;20292;-66
2021/12/14 08:43:57;;;;;;;3.92;3.55;;;1.50;99.90;;;;;;5013837;28;20221;-67
2021/12/14 08:46:27;;;;;;;4.93;4.25;;;1.60;99.90;;;;;;5014105;28;20209;-67
2021/12/14 08:48:59;;;;;;;4.28;3.88;;;1.70;99.90;;;;;;5013558;28;20688;-66
2021/12/14 08:51:31;;;;;;;8.45;5.30;;;1.60;99.90;;;;;;5014278;28;20277;-66
2021/12/14 08:54:02;;;;;;;5.95;4.65;;;1.60;99.90;;;;;;5013777;28;20265;-67
2021/12/14 08:56:32;;;;;;;6.60;5.45;;;1.60;99.90;;;;;;5014497;28;20190;-67
2021/12/14 08:59:00;;;;;;;5.63;4.55;;;1.50;99.90;;;;;;5013736;28;20601;-66
2021/12/14 09:01:30;;;;;;;5.32;4.82;;;1.50;99.90;;;;;;5013661;28;20201;-66
2021/12/14 09:04:04;;;;;;;4.85;4.30;;;1.60;99.90;;;;;;5013805;28;20308;-67
2021/12/14 09:06:35;;;;;;;4.40;4.05;;;1.60;99.90;;;;;;5013583;28;20268;-67
2021/12/14 09:09:07;;;;;;;3.60;3.40;;;1.70;99.90;;;;;;5014302;28;20296;-68
2021/12/14 09:11:38;;;;;;;4.40;4.00;;;1.80;99.90;;;;;;5013983;28;20190;-67
2021/12/14 09:14:09;;;;;;;3.67;3.38;;;1.80;99.90;;;;;;5013672;28;20261;-67
2021/12/14 09:16:36;;;;;;;3.63;3.38;;;1.90;99.90;;;;;;5013752;28;20281;-67
2021/12/14 09:19:08;;;;;;;3.72;3.45;;;1.90;99.90;;;;;;5013558;28;20292;-67
2021/12/14 09:21:39;;;;;;;3.78;3.10;;;1.90;99.90;;;;;;5013440;28;20281;-67
2021/12/14 09:24:09;;;;;;;3.55;3.30;;;2.00;99.90;;;;;;5013086;28;20253;-67
2021/12/14 09:26:42;;;;;;;4.25;3.30;;;2.10;99.90;;;;;;5013478;28;20297;-67
2021/12/14 09:29:14;;;;;;;3.55;3.25;;;2.10;99.90;;;;;;5013725;28;20300;-67
2021/12/14 09:31:42;;;;;;;3.40;3.00;;;2.20;99.90;;;;;;5013454;28;20276;-66
2021/12/14 09:34:13;;;;;;;3.05;2.85;;;2.30;99.90;;;;;;5013410;28;20313;-67
2021/12/14 09:36:41;;;;;;;3.22;3.03;;;2.30;99.90;;;;;;5013663;28;20187;-68
2021/12/14 09:39:12;;;;;;;3.28;3.08;;;2.40;99.90;;;;;;5013606;28;20228;-67
2021/12/14 09:41:42;;;;;;;4.18;3.63;;;2.40;99.90;;;;;;5013517;28;20284;-68
2021/12/14 09:44:13;;;;;;;3.45;3.25;;;2.50;99.90;;;;;;5013327;28;20226;-68
2021/12/14 09:46:40;;;;;;;3.53;2.75;;;2.60;99.90;;;;;;5013142;28;20233;-67
2021/12/14 09:49:09;;;;;;;3.63;3.35;;;2.60;99.90;;;;;;5012861;28;20293;-68
2021/12/14 09:51:41;;;;;;;3.53;3.33;;;2.70;99.90;;;;;;5013404;28;20296;-67
2021/12/14 09:54:12;;;;;;;3.47;3.28;;;2.70;99.90;;;;;;5013160;28;20222;-68
2021/12/14 09:56:43;;;;;;;3.17;2.97;;;2.80;99.90;;;;;;5013242;28;20269;-67
2021/12/14 09:59:11;;;;;;;3.20;2.97;;;3.00;99.90;;;;;;5013647;28;20229;-67
2021/12/14 10:01:42;;;;;;;4.18;3.88;;;3.10;99.90;;;;;;5014599;28;20281;-67
2021/12/14 10:04:14;;;;;;;4.28;3.85;;;3.10;99.90;;;;;;5017044;28;20222;-68
2021/12/14 10:06:43;;;;;;;6.05;4.35;;;3.10;99.90;;;;;;5016477;28;20545;-68
2021/12/14 10:09:15;;;;;;;6.10;4.93;;;3.10;99.90;;;;;;5016634;28;20288;-68
2021/12/14 10:12:00;;;;;;;5.07;4.53;;;3.10;99.90;;;;;;5016747;28;20190;-67
2021/12/14 10:14:30;;;;;;;5.53;4.88;;;3.20;99.90;;;;;;5016590;28;20234;-68
2021/12/14 10:16:57;;;;;;;6.25;4.95;;;3.20;99.90;;;;;;5016539;28;20281;-68
2021/12/14 10:19:29;;;;;;;8.60;6.68;;;3.30;99.90;;;;;;5016457;28;20204;-67
2021/12/14 10:22:00;;;;;;;7.22;5.53;;;3.30;99.90;;;;;;5016442;28;20285;-68
2021/12/14 10:24:28;;;;;;;7.72;5.53;;;3.30;99.90;;;;;;5016135;28;20265;-67
2021/12/14 10:26:59;;;;;;;7.15;5.22;;;3.50;99.90;;;;;;5016279;28;20202;-68
2021/12/14 10:29:29;;;;;;;6.70;5.80;;;3.70;99.90;;;;;;5016252;28;20193;-68
2021/12/14 10:32:01;;;;;;;7.25;5.05;;;3.80;99.90;;;;;;5016282;28;20249;-68
2021/12/14 10:34:29;;;;;;;9.20;5.75;;;4.00;99.90;;;;;;5015832;28;20222;-69
2021/12/14 10:37:07;;;;;;;8.02;5.80;;;4.10;99.90;;;;;;5015739;28;20210;-68
2021/12/14 10:42:37;;;;;;;8.10;5.75;;;4.20;99.90;;;;;;5016103;28;20182;-68
2021/12/14 10:42:51;;;;;;;6.68;5.22;;;4.30;99.90;;;;;;5015636;28;20198;-67
2021/12/14 10:45:18;;;;;;;6.93;5.70;;;4.40;99.90;;;;;;5016101;28;20186;-67
2021/12/14 10:47:45;;;;;;;6.78;5.32;;;4.40;99.90;;;;;;5015949;28;20297;-67
2021/12/14 10:50:17;;;;;;;6.05;5.10;;;4.40;99.90;;;;;;5015806;28;20228;-67
2021/12/14 10:52:45;;;;;;;6.43;5.32;;;4.40;99.90;;;;;;5015596;28;20190;-67
2021/12/14 10:55:19;;;;;;;5.82;5.22;;;4.40;99.90;;;;;;5015289;28;20640;-67
2021/12/14 10:57:46;;;;;;;6.68;5.32;;;4.40;99.90;;;;;;5015418;28;20702;-67
2021/12/14 11:00:18;;;;;;;5.43;4.93;;;4.40;99.90;;;;;;5015307;28;20680;-67
2021/12/14 11:02:45;;;;;;;5.05;4.43;;;4.50;99.90;;;;;;5015317;28;20182;-67
2021/12/14 11:05:18;;;;;;;4.28;3.78;;;4.60;99.90;;;;;;5014817;28;20241;-67
2021/12/14 11:07:49;;;;;;;5.05;4.15;;;4.70;99.90;;;;;;5015268;28;20587;-68
2021/12/14 11:10:22;;;;;;;6.22;4.60;;;4.70;99.90;;;;;;5015826;28;20208;-67
2021/12/14 11:12:54;;;;;;;5.72;4.20;;;4.70;99.90;;;;;;5014882;28;20186;-67
2021/12/14 11:15:23;;;;;;;4.68;4.20;;;4.80;99.90;;;;;;5015668;28;20278;-67
2021/12/14 11:18:10;;;;;;;4.00;3.70;;;4.80;99.90;;;;;;5015003;28;20760;-67
2021/12/14 11:20:44;;;;;;;3.95;3.63;;;4.80;99.90;;;;;;5015298;28;20547;-68
2021/12/14 11:23:16;;;;;;;3.80;3.35;;;4.80;99.90;;;;;;5015120;28;20625;-67
2021/12/14 11:25:52;;;;;;;4.32;3.85;;;4.80;99.90;;;;;;5015101;28;20190;-67
2021/12/14 11:28:23;;;;;;;3.60;3.38;;;4.80;99.90;;;;;;5015253;28;20277;-67
2021/12/14 11:30:54;;;;;;;3.50;3.20;;;4.90;99.90;;;;;;5015194;28;20214;-67
2021/12/14 11:33:26;;;;;;;3.42;3.17;;;5.00;99.90;;;;;;5014643;28;20304;-67
2021/12/14 11:36:03;;;;;;;3.65;3.33;;;5.10;99.90;;;;;;5014993;28;20191;-67
2021/12/14 11:38:39;;;;;;;3.65;2.97;;;5.10;99.90;;;;;;5015065;28;20218;-67
2021/12/14 11:41:25;;;;;;;3.13;2.92;;;5.10;99.90;;;;;;5014604;28;20618;-67
2021/12/14 11:43:56;;;;;;;3.40;3.20;;;5.10;99.90;;;;;;5014911;28;20313;-67
2021/12/14 11:46:23;;;;;;;2.92;2.80;;;5.10;99.90;;;;;;5015067;28;20244;-67
2021/12/14 11:48:50;;;;;;;2.97;2.78;;;5.10;99.90;;;;;;5014882;28;20285;-67
2021/12/14 11:51:17;;;;;;;2.67;2.58;;;5.00;99.90;;;;;;5015361;28;20262;-69
2021/12/14 11:53:54;;;;;;;3.33;3.10;;;4.90;99.90;;;;;;5014881;28;20748;-69
2021/12/14 11:56:23;;;;;;;3.40;3.10;;;4.90;99.90;;;;;;5015501;28;20212;-69
2021/12/14 11:58:54;;;;;;;3.15;2.95;;;4.90;99.90;;;;;;5016054;28;20289;-69
2021/12/14 12:01:26;;;;;;;2.67;2.58;;;4.90;99.90;;;;;;5015861;28;20236;-66
2021/12/14 12:03:56;;;;;;;2.67;2.58;;;4.90;99.90;;;;;;5014373;28;20328;-66
2021/12/14 12:09:28;;;;;;;3.05;2.90;;;4.90;99.90;;;;;;5014524;28;20189;-66
2021/12/14 12:09:40;;;;;;;3.20;3.00;;;5.00;99.90;;;;;;5013787;28;20186;-66
2021/12/14 12:12:25;;;;;;;3.08;2.50;;;5.00;99.90;;;;;;5014067;28;20594;-66
2021/12/14 12:14:55;;;;;;;3.05;2.85;;;5.10;99.90;;;;;;5013886;28;20232;-66
2021/12/14 12:17:29;;;;;;;2.42;2.33;;;5.10;99.90;;;;;;5014141;28;20312;-66
2021/12/14 12:20:06;;;;;;;3.03;2.67;;;5.10;99.90;;;;;;5013941;28;20277;-67
2021/12/14 12:22:36;;;;;;;2.65;2.55;;;5.10;99.90;;;;;;5014130;28;20186;-67
2021/12/14 12:25:07;;;;;;;3.10;2.90;;;5.20;99.90;;;;;;5013090;28;20276;-67
2021/12/14 12:27:39;;;;;;;3.10;2.90;;;5.20;99.90;;;;;;5014032;28;20279;-67
2021/12/14 12:30:29;;;;;;;2.65;2.53;;;5.30;99.90;;;;;;5013500;28;20586;-67
2021/12/14 12:32:58;;;;;;;2.55;2.45;;;5.20;99.90;;;;;;5013904;28;20225;-67
2021/12/14 12:35:34;;;;;;;2.67;2.50;;;5.40;99.90;;;;;;5013921;28;20324;-68
2021/12/14 12:38:21;;;;;;;2.97;2.78;;;5.40;99.90;;;;;;5013511;28;20273;-67
2021/12/14 12:40:55;;;;;;;2.08;1.98;;;5.50;99.90;;;;;;5013670;28;20277;-68
2021/12/14 12:43:27;;;;;;;2.70;2.60;;;5.50;99.90;;;;;;5013384;28;20225;-68
2021/12/14 12:46:00;;;;;;;2.70;2.60;;;5.60;99.90;;;;;;5014580;28;20182;-67
2021/12/14 12:48:46;;;;;;;2.30;2.20;;;5.70;99.90;;;;;;5013596;28;20705;-68
2021/12/14 12:51:39;;;;;;;2.58;2.47;;;5.70;99.90;;;;;;5013538;28;20682;-67
2021/12/14 12:54:16;;;;;;;2.45;2.35;;;5.70;99.90;;;;;;5015267;28;20249;-68
2021/12/14 12:56:48;;;;;;;2.85;2.70;;;5.70;99.90;;;;;;5013778;28;20268;-67
2021/12/14 12:59:35;;;;;;;2.00;1.90;;;5.60;99.90;;;;;;5013669;28;20264;-67
2021/12/14 13:02:14;;;;;;;1.85;1.85;;;5.60;99.90;;;;;;5013606;28;20252;-67
2021/12/14 13:04:43;;;;;;;2.30;2.20;;;5.50;99.90;;;;;;5013426;28;20304;-67
2021/12/14 13:07:10;;;;;;;2.10;2.00;;;5.40;99.90;;;;;;5013157;28;20578;-67
2021/12/14 13:10:10;;;;;;;2.38;2.28;;;5.40;99.90;;;;;;5013105;28;20198;-67
2021/12/14 13:12:51;;;;;;;1.92;1.83;;;5.40;99.90;;;;;;5013615;28;20269;-68
2021/12/14 13:15:39;;;;;;;2.20;2.10;;;5.30;99.90;;;;;;5013937;28;20273;-68
2021/12/14 13:18:29;;;;;;;2.22;2.13;;;5.20;99.90;;;;;;5013741;28;20276;-68
2021/12/14 13:20:58;;;;;;;1.70;1.70;;;5.20;99.90;;;;;;5013875;28;20269;-67
2021/12/14 13:23:51;;;;;;;2.03;1.88;;;5.20;99.90;;;;;;5013605;28;20317;-68
2021/12/14 13:26:40;;;;;;;1.77;1.77;;;5.20;99.90;;;;;;5013320;28;20186;-68
2021/12/14 13:29:26;;;;;;;1.73;1.73;;;5.20;99.90;;;;;;5013138;28;20276;-68
2021/12/14 13:31:55;;;;;;;1.60;1.60;;;5.20;99.90;;;;;;5013268;28;20206;-68
2021/12/14 13:34:25;;;;;;;1.50;1.50;;;5.10;99.90;;;;;;5012901;28;20566;-67
2021/12/14 13:36:53;;;;;;;1.70;1.70;;;5.10;99.90;;;;;;5016486;28;20784;-67
2021/12/14 13:39:22;;;;;;;1.65;1.65;;;5.10;99.90;;;;;;5016759;28;20661;-67
2021/12/14 13:42:09;;;;;;;1.40;1.40;;;5.10;99.90;;;;;;5017955;28;20262;-67
2021/12/14 13:44:39;;;;;;;1.60;1.60;;;5.10;99.90;;;;;;5021272;28;20221;-67
2021/12/14 13:47:11;;;;;;;1.45;1.45;;;5.10;99.90;;;;;;5022262;28;20222;-67
2021/12/14 13:49:41;;;;;;;1.50;1.50;;;5.10;99.90;;;;;;5019638;28;20190;-68
2021/12/14 13:52:11;;;;;;;1.23;1.23;;;5.10;99.90;;;;;;5016741;28;20218;-67
2021/12/14 13:55:06;;;;;;;1.23;1.23;;;5.10;99.90;;;;;;5017209;28;20308;-67
2021/12/14 13:57:33;;;;;;;1.13;1.13;;;5.10;99.90;;;;;;5017156;28;20281;-67
2021/12/14 14:00:05;;;;;;;1.38;1.38;;;5.10;99.90;;;;;;5018067;28;20309;-67
2021/12/14 14:02:31;;;;;;;0.95;0.95;;;5.10;99.90;;;;;;5017147;28;20213;-68
2021/12/14 14:04:58;;;;;;;1.20;1.20;;;5.00;99.90;;;;;;5016853;28;20293;-67
2021/12/14 14:07:25;;;;;;;1.30;1.30;;;5.00;99.90;;;;;;5016522;28;20293;-67
2021/12/14 14:09:52;;;;;;;1.35;1.35;;;5.00;99.90;;;;;;5016388;28;20288;-67
2021/12/14 14:12:23;;;;;;;0.93;0.93;;;4.90;99.90;;;;;;5016346;28;20232;-68
2021/12/14 14:14:51;;;;;;;1.05;1.05;;;4.90;99.90;;;;;;5016093;28;20252;-67
2021/12/14 14:17:22;;;;;;;1.33;1.33;;;4.90;99.90;;;;;;5016322;28;20201;-67
2021/12/14 14:19:52;;;;;;;1.13;1.13;;;4.90;99.90;;;;;;5016112;28;20713;-67
2021/12/14 14:22:27;;;;;;;1.08;1.08;;;4.80;99.90;;;;;;5016876;28;20587;-67
2021/12/14 14:25:01;;;;;;;1.10;1.10;;;4.80;99.90;;;;;;5015892;28;20271;-67
2021/12/14 14:27:37;;;;;;;1.27;1.27;;;4.70;99.90;;;;;;5016136;28;20273;-67
2021/12/14 14:30:35;;;;;;;1.05;1.05;;;4.70;99.90;;;;;;5016190;28;20225;-67
2021/12/14 14:33:11;;;;;;;1.25;1.25;;;4.70;99.90;;;;;;5016143;28;20305;-67
2021/12/14 14:35:44;;;;;;;1.20;1.20;;;4.70;99.90;;;;;;5016053;28;20190;-67
2021/12/14 14:38:45;;;;;;;1.15;1.15;;;4.70;99.90;;;;;;5015549;28;20683;-67
2021/12/14 14:41:40;;;;;;;1.50;1.50;;;4.60;99.90;;;;;;4936142;29;20267;-67
2021/12/14 14:44:14;;;;;;;1.40;1.40;;;4.60;99.90;;;;;;4924105;29;20227;-67
2021/12/14 14:47:05;;;;;;;1.17;1.17;;;4.60;99.90;;;;;;4991064;28;20292;-67
2021/12/14 14:50:01;;;;;;;1.50;1.40;;;4.60;99.90;;;;;;5011081;28;20206;-67
2021/12/14 14:52:31;;;;;;;1.85;1.75;;;4.60;99.90;;;;;;5006723;28;20214;-67
2021/12/14 14:55:02;;;;;;;1.50;1.50;;;4.50;99.90;;;;;;5015839;28;20190;-68
2021/12/14 14:57:48;;;;;;;1.25;1.25;;;4.50;99.90;;;;;;5015803;28;20182;-67
2021/12/14 15:00:29;;;;;;;1.63;1.52;;;4.50;99.90;;;;;;5015689;28;20289;-68
2021/12/14 15:02:58;;;;;;;1.50;1.50;;;4.40;99.90;;;;;;5015571;28;20320;-67
2021/12/14 15:05:37;;;;;;;1.48;1.48;;;4.40;99.90;;;;;;5015483;28;20296;-67
2021/12/14 15:08:10;;;;;;;1.55;1.55;;;4.40;99.90;;;;;;5015416;28;20274;-67
2021/12/14 15:10:40;;;;;;;1.42;1.42;;;4.30;99.90;;;;;;5015367;28;20515;-67
2021/12/14 15:13:26;;;;;;;1.60;1.50;;;4.30;99.90;;;;;;5015016;28;20708;-67
2021/12/14 15:16:16;;;;;;;1.70;1.70;;;4.20;99.90;;;;;;5015304;28;20182;-67
2021/12/14 15:18:53;;;;;;;1.30;1.30;;;4.20;99.90;;;;;;5005328;28;20639;-67
2021/12/14 15:21:43;;;;;;;1.77;1.70;;;4.10;99.90;;;;;;5015061;28;20557;-67
2021/12/14 15:24:45;;;;;;;1.88;1.88;;;4.00;99.90;;;;;;5015063;28;20324;-67
2021/12/14 15:27:44;;;;;;;1.40;1.40;;;3.90;99.90;;;;;;5015013;28;20633;-67
2021/12/14 15:30:19;;;;;;;2.55;2.35;;;3.80;99.90;;;;;;5015174;28;20244;-67
2021/12/14 15:33:14;;;;;;;2.33;2.22;;;3.70;99.90;;;;;;5014988;28;20255;-67
2021/12/14 15:35:51;;;;;;;2.10;2.00;;;3.60;99.90;;;;;;5015138;28;20222;-67
2021/12/14 15:38:28;;;;;;;2.25;2.15;;;3.60;99.90;;;;;;5015148;28;20275;-67
2021/12/14 15:41:08;;;;;;;2.90;2.70;;;3.50;99.90;;;;;;5015008;28;20192;-67
2021/12/14 15:43:39;;;;;;;3.70;3.40;;;3.50;99.90;;;;;;5014959;28;20221;-68
2021/12/14 15:46:18;;;;;;;3.65;3.35;;;3.30;99.90;;;;;;5014815;28;20253;-67
2021/12/14 15:48:47;;;;;;;4.20;3.42;;;3.30;99.90;;;;;;5014887;28;20190;-68
2021/12/14 15:51:21;;;;;;;3.55;3.35;;;3.30;99.90;;;;;;5014494;28;20226;-68
2021/12/14 15:54:06;;;;;;;3.08;2.88;;;3.20;99.90;;;;;;5014876;28;20325;-68
2021/12/14 15:56:36;;;;;;;2.60;2.50;;;3.20;99.90;;;;;;5014624;28;20190;-67
2021/12/14 15:59:06;;;;;;;3.20;3.00;;;3.10;99.90;;;;;;5013481;28;20300;-67
2021/12/14 16:01:36;;;;;;;2.90;2.70;;;3.10;99.90;;;;;;5015297;28;20229;-67
2021/12/14 16:04:07;;;;;;;2.30;2.20;;;3.10;99.90;;;;;;5014460;28;20309;-67
2021/12/14 16:06:36;;;;;;;2.67;2.58;;;3.00;99.90;;;;;;5014415;28;20218;-67
2021/12/14 16:09:08;;;;;;;2.63;2.53;;;3.00;99.90;;;;;;5014742;28;20277;-67
2021/12/14 16:11:46;;;;;;;2.78;2.67;;;2.90;99.90;;;;;;5014574;28;20313;-67
2021/12/14 16:17:09;;;;;;;2.88;2.67;;;2.90;99.90;;;;;;5014508;28;20692;-67
2021/12/14 16:19:37;;;;;;;3.00;2.80;;;2.80;99.90;;;;;;5014888;28;20264;-68
2021/12/14 16:22:10;;;;;;;2.78;2.63;;;2.90;99.90;;;;;;5014370;28;20289;-67
2021/12/14 16:24:39;;;;;;;2.88;2.67;;;2.80;99.90;;;;;;5013947;28;20240;-66
2021/12/14 16:27:06;;;;;;;2.72;2.58;;;2.80;99.90;;;;;;5014174;28;20288;-66
2021/12/14 16:29:36;;;;;;;2.85;2.65;;;2.70;99.90;;;;;;5014106;28;20292;-66
2021/12/14 16:32:05;;;;;;;3.05;2.85;;;2.70;99.90;;;;;;5013983;28;20662;-67
2021/12/14 16:34:34;;;;;;;3.10;2.90;;;2.70;99.90;;;;;;5014319;28;20221;-67
2021/12/14 16:37:01;;;;;;;3.42;3.17;;;2.70;99.90;;;;;;5014261;28;20289;-66
2021/12/14 16:39:32;;;;;;;2.80;2.60;;;2.60;99.90;;;;;;5014325;28;20292;-67
2021/12/14 16:42:02;;;;;;;2.50;2.40;;;2.60;99.90;;;;;;5014296;28;20277;-67
2021/12/14 16:44:33;;;;;;;2.58;2.38;;;2.60;99.90;;;;;;5014261;28;20312;-67
2021/12/14 16:47:05;;;;;;;2.13;2.03;;;2.60;99.90;;;;;;5014288;28;20187;-66
2021/12/14 16:49:35;;;;;;;2.65;2.50;;;2.60;99.90;;;;;;5014186;28;20186;-66
2021/12/14 16:52:08;;;;;;;2.67;2.53;;;2.60;99.90;;;;;;5014015;28;20205;-67
2021/12/14 16:54:35;;;;;;;2.35;2.15;;;2.60;99.90;;;;;;5013454;28;20313;-66
2021/12/14 16:57:08;;;;;;;2.20;2.10;;;2.60;99.90;;;;;;5013774;28;20209;-67
2021/12/14 16:59:37;;;;;;;2.10;2.10;;;2.60;99.90;;;;;;5013818;28;20694;-66
2021/12/14 17:02:09;;;;;;;2.47;2.38;;;2.60;99.90;;;;;;5013731;28;20732;-66
2021/12/14 17:04:39;;;;;;;2.47;2.38;;;2.60;99.90;;;;;;5014694;28;20222;-66
2021/12/14 17:07:10;;;;;;;2.78;2.58;;;2.50;99.90;;;;;;5013886;28;20197;-66
2021/12/14 17:09:37;;;;;;;2.88;2.47;;;2.50;99.90;;;;;;5013406;28;20705;-66
2021/12/14 17:12:13;;;;;;;2.20;2.10;;;2.50;99.90;;;;;;5017729;28;20228;-66
2021/12/14 17:14:43;;;;;;;2.00;2.00;;;2.40;99.90;;;;;;5017687;28;20709;-66
2021/12/14 17:17:12;;;;;;;2.47;2.28;;;2.40;99.90;;;;;;5017484;28;20241;-66
2021/12/14 17:19:47;;;;;;;2.20;2.10;;;2.40;99.90;;;;;;5017735;28;20285;-66
2021/12/14 17:22:18;;;;;;;2.00;1.90;;;2.40;99.90;;;;;;5017638;28;20194;-65
2021/12/14 17:24:48;;;;;;;2.20;2.10;;;2.40;99.90;;;;;;5017080;28;20261;-66
2021/12/14 17:27:20;;;;;;;1.95;1.88;;;2.40;99.90;;;;;;5017403;28;20192;-66
2021/12/14 17:29:51;;;;;;;1.65;1.65;;;2.40;99.90;;;;;;5017119;28;20611;-66
2021/12/14 17:32:22;;;;;;;1.73;1.73;;;2.30;99.90;;;;;;5016931;28;20293;-66
2021/12/14 17:34:52;;;;;;;2.13;2.03;;;2.40;99.90;;;;;;5016902;28;20218;-66
2021/12/14 17:37:24;;;;;;;1.95;1.85;;;2.40;99.90;;;;;;5017105;28;20297;-65
2021/12/14 17:39:54;;;;;;;2.00;1.90;;;2.30;99.90;;;;;;5016929;28;20661;-66
2021/12/14 17:42:26;;;;;;;1.85;1.75;;;2.30;99.90;;;;;;5016807;28;20634;-65
2021/12/14 17:44:57;;;;;;;1.83;1.83;;;2.30;99.90;;;;;;5017047;28;20312;-66
2021/12/14 17:47:30;;;;;;;1.83;1.73;;;2.30;99.90;;;;;;5017073;28;20272;-66
2021/12/14 17:49:59;;;;;;;1.80;1.80;;;2.30;99.90;;;;;;5017025;28;20190;-66
2021/12/14 17:52:31;;;;;;;1.58;1.58;;;2.30;99.90;;;;;;5016846;28;20309;-65
2021/12/14 17:55:00;;;;;;;2.00;1.90;;;2.30;99.90;;;;;;5016756;28;20190;-65
2021/12/14 17:57:31;;;;;;;2.28;2.17;;;2.30;99.90;;;;;;5017066;28;20269;-66
2021/12/14 18:00:01;;;;;;;1.60;1.60;;;2.20;99.90;;;;;;5017047;28;20277;-65
2021/12/14 18:02:34;;;;;;;1.67;1.67;;;2.20;99.90;;;;;;5016973;28;20183;-65
2021/12/14 18:05:05;;;;;;;1.73;1.73;;;2.20;99.90;;;;;;5016692;28;20680;-66
2021/12/14 18:07:42;;;;;;;1.63;1.63;;;2.20;99.90;;;;;;5016707;28;20635;-65
2021/12/14 18:10:09;;;;;;;1.95;1.85;;;2.20;99.90;;;;;;5016496;28;20277;-66
2021/12/14 18:12:44;;;;;;;1.98;1.92;;;2.20;99.90;;;;;;5016733;28;20226;-66
2021/12/14 18:15:12;;;;;;;1.65;1.58;;;2.10;99.90;;;;;;5016879;28;20229;-65
2021/12/14 18:17:50;;;;;;;1.58;1.58;;;2.10;99.90;;;;;;5016568;28;20716;-66
2021/12/14 18:20:21;;;;;;;1.63;1.63;;;2.10;99.90;;;;;;5016989;28;20186;-67
2021/12/14 18:22:48;;;;;;;1.75;1.65;;;2.10;99.90;;;;;;5015420;28;20277;-67
2021/12/14 18:25:15;;;;;;;1.85;1.77;;;2.10;99.90;;;;;;5017073;28;20220;-67
2021/12/14 18:27:48;;;;;;;1.92;1.92;;;2.10;99.90;;;;;;5016655;28;20213;-67
2021/12/14 18:30:18;;;;;;;1.60;1.58;;;2.10;99.90;;;;;;5016304;28;20725;-66
2021/12/14 18:32:46;;;;;;;1.60;1.60;;;2.10;99.90;;;;;;5015993;28;20202;-67
2021/12/14 18:35:18;;;;;;;1.80;1.70;;;2.10;99.90;;;;;;5016314;28;20208;-67
2021/12/14 18:37:50;;;;;;;1.50;1.50;;;2.10;99.90;;;;;;5016398;28;20186;-67
2021/12/14 18:40:34;;;;;;;1.73;1.73;;;2.10;99.90;;;;;;5016373;28;20329;-67
2021/12/14 18:43:05;;;;;;;1.80;1.70;;;2.10;99.90;;;;;;5016147;28;20253;-68